Winter, WI (54896)

9:35 AM CST on December 22, 2014 (GMT -0600)
Dam Road | Change Station
CLOSE
Current Station
Personal Weather Station
Location: Winter, WI
Elevation: 1312 ft
Nearby Weather Stations
Active Advisory: Winter Weather Advisory Active Notice: Local Storm Report

Elev 1312 ft 45.87 °N, 91.07 °W | Updated 3 seconds ago

Overcast
Overcast
34.3 °F
Feels Like 31 °F
N
3.5
Wind Variable Wind from SE
Gusts 3.5 mph

Today
High -- | Low -- °F
--% Chance of Precip.
Yesterday
High -- | Low -- °F
Precip. -- in
7:42 AM 4:22 PM
New Moon, 0% visible
Pressure 29.78 in
Visibility 2.5 miles
Clouds Overcast 400 ft
Windchill 31 °F
Dew Point 33 °F
Humidity 96%
Rainfall 0.04 in
Snow Depth Not available.
UV 0.0 out of 12
Pollen .10 out of 12
Air Quality Not available.
Flu Activity Not available.
METAR KRCX 221515Z AUTO 14008KT 2 1/2SM BR OVC004 01/01 A2978 RMK AO2 T00120005

More Conditions Fewer Conditions

Pressure 29.78 in
Visibility 2.5 miles
Clouds Overcast 400 ft
Windchill 31 °F
Dew Point 33 °F
Humidity 96%
Rainfall 0.04 in
Snow Depth Not available.
UV 0.0 out of 12
Pollen .10 out of 12
Air Quality Not available.
Flu Activity Not available.
METAR KRCX 221515Z AUTO 14008KT 2 1/2SM BR OVC004 01/01 A2978 RMK AO2 T00120005

More Conditions Fewer Conditions

10-Day Weather Forecast

Almanac

Astronomy

Dec. 22, 2014 Rise Set
Actual Time
Civil Twilight
Nautical Twilight
Astronomical Twilight
Moon
Length of Visible Light
Length of Day
Tomorrow will be .
, % of the Moon is Illuminated

Today's Extremes

State Highs State Lows

Community

WunderPhotos

Upload Photos

1,779,619 photos uploaded!

WunderBlogs® & News

Nearby

Air Quality

  Air Quality AQ Index Pollutant
Not available.

Snow Depth

Station Depth Elevation

Earthquake Activity

City Distance Mag. Time & Date
Minimum magnitude displayed is 2.5.

Coastal Water Temperatures

Place Temperature

Nearby Weather Stations